Time;durP1;ratioP1;P1;durP2;ratioP2;P2;SDS_P1;SDS_P2;PMS_P1;PMS_P2;Temp;Humidity;BMP_temperature;BMP_pressure;BME280_temperature;BME280_humidity;BME280_pressure;Samples;Min_cycle;Max_cycle;Signal;HPM_P1;HPM_P2
2023/03/14 00:01:09;;;;;;;10.13;2.28;;;;;;;8.39;100.00;98604.84;4893244;29;20104;-75
2023/03/14 00:03:34;;;;;;;12.25;1.90;;;;;;;8.38;100.00;98600.53;4911332;29;20062;-75
2023/03/14 00:06:04;;;;;;;10.18;1.60;;;;;;;8.36;100.00;98591.91;4914324;29;20574;-75
2023/03/14 00:08:29;;;;;;;7.03;2.40;;;;;;;8.34;100.00;98593.78;4914349;29;20039;-75
2023/03/14 00:10:55;;;;;;;10.63;2.30;;;;;;;8.31;100.00;98596.66;4912110;29;20542;-75
2023/03/14 00:13:20;;;;;;;10.48;2.20;;;;;;;8.29;100.00;98596.75;4900019;29;21716;-75
2023/03/14 00:15:46;;;;;;;13.40;2.25;;;;;;;8.28;100.00;98597.72;4915585;29;20051;-75
2023/03/14 00:18:11;;;;;;;7.82;2.58;;;;;;;8.24;100.00;98593.63;4897119;29;20177;-75
2023/03/14 00:20:37;;;;;;;8.23;2.15;;;;;;;8.22;100.00;98589.44;4913036;29;20055;-75
2023/03/14 00:23:02;;;;;;;13.07;2.20;;;;;;;8.19;100.00;98589.63;4911132;29;20767;-75
2023/03/14 00:25:28;;;;;;;13.45;2.00;;;;;;;8.14;100.00;98588.19;4892385;28;21739;-76
2023/03/14 00:27:53;;;;;;;10.80;2.28;;;;;;;8.12;100.00;98594.50;4912151;29;20059;-75
2023/03/14 00:30:19;;;;;;;6.85;2.10;;;;;;;8.05;100.00;98588.81;4914536;28;20050;-76
2023/03/14 00:32:45;;;;;;;8.73;2.03;;;;;;;7.99;100.00;98595.38;4896313;28;20675;-75
2023/03/14 00:35:10;;;;;;;10.07;2.00;;;;;;;7.96;100.00;98594.75;4910540;29;20157;-76
2023/03/14 00:37:35;;;;;;;7.15;2.30;;;;;;;7.91;100.00;98588.97;4911509;29;20487;-76
2023/03/14 00:40:01;;;;;;;7.45;1.92;;;;;;;7.87;100.00;98585.69;4909609;29;20128;-75
2023/03/14 00:42:27;;;;;;;7.28;1.80;;;;;;;7.84;100.00;98596.47;4911624;29;20086;-76
2023/03/14 00:44:52;;;;;;;11.18;2.28;;;;;;;7.79;100.00;98599.41;4911173;29;20055;-76
2023/03/14 00:47:18;;;;;;;11.00;2.30;;;;;;;7.74;100.00;98602.34;4909609;29;20044;-76
2023/03/14 00:49:43;;;;;;;7.80;1.98;;;;;;;7.71;100.00;98591.19;4913173;29;20809;-76
2023/03/14 00:52:09;;;;;;;7.65;2.17;;;;;;;7.66;100.00;98604.69;4915134;29;20377;-76
2023/03/14 00:54:35;;;;;;;6.20;1.88;;;;;;;7.63;100.00;98598.78;4925468;28;20126;-76
2023/03/14 00:57:00;;;;;;;5.88;1.60;;;;;;;7.60;100.00;98599.84;4913335;29;20047;-76
2023/03/14 00:59:26;;;;;;;3.75;1.65;;;;;;;7.58;100.00;98597.31;4911381;28;20380;-76
2023/03/14 01:01:51;;;;;;;5.75;1.55;;;;;;;7.57;100.00;98586.91;4917498;29;20039;-76
2023/03/14 01:04:17;;;;;;;8.20;2.00;;;;;;;7.57;100.00;98590.34;4914884;29;20056;-76
2023/03/14 01:06:42;;;;;;;7.20;1.90;;;;;;;7.59;100.00;98590.25;4915963;29;20044;-76
2023/03/14 01:09:08;;;;;;;7.07;2.40;;;;;;;7.62;100.00;98576.88;4897413;29;20114;-76
2023/03/14 01:11:34;;;;;;;7.65;1.83;;;;;;;7.64;100.00;98582.88;4914029;29;20411;-76
2023/03/14 01:14:00;;;;;;;8.45;1.67;;;;;;;7.66;100.00;98578.34;4911897;29;20071;-76
2023/03/14 01:16:28;;;;;;;7.65;1.80;;;;;;;7.68;100.00;98586.97;4900100;28;20067;-76
2023/03/14 01:18:54;;;;;;;5.95;1.67;;;;;;;7.70;100.00;98581.59;4911821;29;20055;-76
2023/03/14 01:21:22;;;;;;;5.13;1.40;;;;;;;7.75;100.00;98584.78;4914628;29;20558;-76
2023/03/14 01:23:48;;;;;;;6.28;1.58;;;;;;;7.80;100.00;98580.00;4914314;29;21664;-76
2023/03/14 01:26:18;;;;;;;4.53;1.40;;;;;;;7.87;100.00;98590.97;4898348;29;20055;-76
2023/03/14 01:28:44;;;;;;;4.32;1.27;;;;;;;7.92;100.00;98583.59;4913833;29;22074;-75
2023/03/14 01:31:11;;;;;;;10.45;2.63;;;;;;;7.97;100.00;98584.13;4914090;29;20067;-76
2023/03/14 01:33:37;;;;;;;7.45;1.45;;;;;;;8.01;100.00;98577.66;4930329;28;20107;-75
2023/03/14 01:36:03;;;;;;;10.35;1.77;;;;;;;8.04;100.00;98570.47;4927233;28;20043;-74
2023/03/14 01:38:30;;;;;;;8.73;1.60;;;;;;;8.07;100.00;98565.81;4914009;29;20043;-74
2023/03/14 01:40:55;;;;;;;9.20;1.52;;;;;;;8.12;100.00;98570.78;4914521;29;20054;-74
2023/03/14 01:43:21;;;;;;;12.73;2.20;;;;;;;8.13;100.00;98575.94;4918337;29;20054;-74
2023/03/14 01:46:05;;;;;;;6.40;1.50;;;;;;;8.14;100.00;98577.66;4893796;29;20419;-74
2023/03/14 01:48:54;;;;;;;6.30;1.60;;;;;;;8.14;100.00;98563.59;4913740;29;20580;-75
2023/03/14 01:51:51;;;;;;;7.05;1.73;;;;;;;8.07;100.00;98557.91;4918382;29;20039;-76
2023/03/14 01:54:25;;;;;;;8.40;1.50;;;;;;;8.01;100.00;98564.47;4912594;29;20105;-76
2023/03/14 01:56:58;;;;;;;11.60;1.88;;;;;;;7.96;100.00;98557.88;4916229;29;20055;-74
2023/03/14 01:59:24;;;;;;;6.85;1.65;;;;;;;7.92;100.00;98551.13;4914583;29;20817;-75
2023/03/14 02:01:51;;;;;;;6.03;1.40;;;;;;;7.89;100.00;98562.72;4928279;28;20047;-75
2023/03/14 02:04:17;;;;;;;6.25;1.30;;;;;;;7.86;100.00;98555.88;4898400;29;20103;-74
2023/03/14 02:06:49;;;;;;;9.93;2.03;;;;;;;7.82;100.00;98543.03;4909596;29;20059;-75
2023/03/14 02:09:14;;;;;;;4.20;1.23;;;;;;;7.79;100.00;98551.97;4917261;29;20055;-75
2023/03/14 02:11:40;;;;;;;5.53;1.27;;;;;;;7.75;100.00;98551.34;4914928;29;20047;-75
2023/03/14 02:14:07;;;;;;;5.10;1.10;;;;;;;7.70;100.00;98558.75;4915843;29;20495;-74
2023/03/14 02:16:34;;;;;;;9.45;1.77;;;;;;;7.67;100.00;98564.22;4900030;29;20515;-74
2023/03/14 02:18:59;;;;;;;9.18;1.55;;;;;;;7.67;100.00;98553.69;4913889;29;20062;-74
2023/03/14 02:21:54;;;;;;;6.18;1.60;;;;;;;7.66;100.00;98545.88;4912332;29;20454;-75
2023/03/14 02:24:26;;;;;;;5.30;1.35;;;;;;;7.65;100.00;98545.06;4910034;29;20075;-75
2023/03/14 02:27:10;;;;;;;5.03;1.35;;;;;;;7.67;100.00;98539.69;4911854;29;20146;-75
2023/03/14 02:30:00;;;;;;;6.75;1.33;;;;;;;7.66;100.00;98538.84;4908997;29;20626;-74
2023/03/14 02:32:27;;;;;;;8.48;1.92;;;;;;;7.66;100.00;98540.63;4900848;29;20046;-74
2023/03/14 02:34:56;;;;;;;6.28;1.25;;;;;;;7.64;100.00;98538.13;4897507;29;20412;-75
2023/03/14 02:37:24;;;;;;;9.02;2.00;;;;;;;7.63;100.00;98535.59;4904453;29;20047;-75
2023/03/14 02:39:50;;;;;;;5.60;1.17;;;;;;;7.61;100.00;98533.91;4907514;29;20162;-75
2023/03/14 02:42:16;;;;;;;10.30;1.73;;;;;;;7.59;100.00;98532.31;4911000;29;20047;-74
2023/03/14 02:45:10;;;;;;;6.88;1.73;;;;;;;7.56;100.00;98533.38;4908522;29;20524;-74
2023/03/14 02:47:36;;;;;;;;;;;;;;;7.55;100.00;98538.75;4910658;29;20047;-74
2023/03/14 02:50:07;;;;;;;9.27;3.20;;;;;;;7.53;100.00;98538.88;4907778;29;20366;-74
2023/03/14 02:52:32;;;;;;;7.32;1.67;;;;;;;7.51;100.00;98529.41;4908503;29;22858;-74
2023/03/14 02:54:58;;;;;;;7.63;1.85;;;;;;;7.48;100.00;98538.34;4913829;29;20127;-75
2023/03/14 02:57:23;;;;;;;11.18;1.42;;;;;;;7.46;100.00;98535.81;4911466;29;20115;-74
2023/03/14 02:59:48;;;;;;;7.63;2.00;;;;;;;7.45;100.00;98535.91;4910724;29;20063;-74
2023/03/14 03:02:14;;;;;;;8.32;1.80;;;;;;;7.44;100.00;98529.81;4909865;29;20261;-75
2023/03/14 03:04:39;;;;;;;12.00;2.05;;;;;;;7.43;100.00;98520.25;4911965;29;20482;-75
2023/03/14 03:07:05;;;;;;;8.95;1.65;;;;;;;7.44;100.00;98532.44;4902884;29;20052;-74
2023/03/14 03:09:30;;;;;;;9.18;2.10;;;;;;;7.45;100.00;98523.59;4911385;29;20071;-75
2023/03/14 03:11:55;;;;;;;8.23;1.65;;;;;;;7.47;100.00;98516.41;4910154;29;20139;-75
2023/03/14 03:14:21;;;;;;;8.90;1.80;;;;;;;7.51;100.00;98532.03;4913745;29;20624;-75
2023/03/14 03:16:46;;;;;;;15.13;2.30;;;;;;;7.51;100.00;98524.13;4910386;29;20575;-76
2023/03/14 03:19:13;;;;;;;11.93;1.85;;;;;;;7.52;100.00;98524.00;4910445;29;20046;-75
2023/03/14 03:21:39;;;;;;;19.05;2.60;;;;;;;7.53;100.00;98516.94;4908058;29;20221;-75
2023/03/14 03:24:05;;;;;;;12.68;2.42;;;;;;;7.53;100.00;98517.81;4908945;29;20107;-75
2023/03/14 03:26:30;;;;;;;11.27;2.45;;;;;;;7.53;100.00;98519.59;4911900;29;20423;-75
2023/03/14 03:28:56;;;;;;;9.27;2.35;;;;;;;7.52;100.00;98510.84;4905990;29;20984;-75
2023/03/14 03:31:21;;;;;;;15.70;3.10;;;;;;;7.53;100.00;98517.81;4908497;29;20209;-75
2023/03/14 03:33:47;;;;;;;14.57;2.40;;;;;;;7.53;100.00;98515.19;4910726;29;20047;-75
2023/03/14 03:36:12;;;;;;;14.60;2.15;;;;;;;7.54;100.00;98513.38;4909034;28;20102;-75
2023/03/14 03:38:38;;;;;;;9.50;2.72;;;;;;;7.54;100.00;98510.72;4914035;29;20058;-76
2023/03/14 03:41:05;;;;;;;11.45;2.20;;;;;;;7.56;100.00;98512.31;4913948;29;20047;-76
2023/03/14 03:43:31;;;;;;;10.35;2.53;;;;;;;7.56;100.00;98520.22;4895269;29;20078;-76
2023/03/14 03:45:56;;;;;;;8.90;1.70;;;;;;;7.56;100.00;98514.94;4908642;29;21046;-75
2023/03/14 03:48:22;;;;;;;9.70;2.13;;;;;;;7.55;100.00;98515.03;4914105;29;20074;-75
2023/03/14 03:50:47;;;;;;;14.93;2.45;;;;;;;7.55;100.00;98522.94;4911717;29;20110;-75
2023/03/14 03:53:13;;;;;;;12.45;2.05;;;;;;;7.54;100.00;98516.84;4907386;29;20680;-76
2023/03/14 03:55:42;;;;;;;11.13;2.63;;;;;;;7.56;100.00;98514.94;4897803;29;20047;-75
2023/03/14 03:58:07;;;;;;;15.80;3.00;;;;;;;7.56;100.00;98522.00;4912471;29;20046;-75
2023/03/14 04:00:33;;;;;;;9.90;2.05;;;;;;;7.56;100.00;98511.47;4914619;29;20060;-75
2023/03/14 04:02:59;;;;;;;15.80;2.53;;;;;;;7.57;100.00;98513.16;4913153;29;20212;-75
2023/03/14 04:05:24;;;;;;;13.95;2.63;;;;;;;7.55;100.00;98523.78;4915959;29;20855;-75
2023/03/14 04:07:50;;;;;;;11.30;2.40;;;;;;;7.58;100.00;98506.94;4927457;28;20189;-75
2023/03/14 04:10:15;;;;;;;11.45;2.22;;;;;;;7.59;100.00;98519.97;4886837;29;20054;-75
2023/03/14 04:12:41;;;;;;;9.68;1.75;;;;;;;7.60;100.00;98516.44;4910550;28;21098;-75
2023/03/14 04:15:07;;;;;;;12.52;2.13;;;;;;;7.58;100.00;98513.03;4898245;29;20143;-75
2023/03/14 04:17:33;;;;;;;12.00;1.63;;;;;;;7.60;100.00;98521.69;4913301;29;20043;-73
2023/03/14 04:19:58;;;;;;;10.15;1.55;;;;;;;7.61;100.00;98527.78;4914370;28;20040;-74
2023/03/14 04:22:23;;;;;;;10.93;1.70;;;;;;;7.61;100.00;98517.25;4914596;29;20063;-73
2023/03/14 04:24:49;;;;;;;8.77;2.42;;;;;;;7.62;100.00;98503.13;4910175;29;20055;-75
2023/03/14 04:27:14;;;;;;;11.77;2.15;;;;;;;7.63;100.00;98520.59;4911235;29;20062;-75
2023/03/14 04:29:41;;;;;;;6.88;1.67;;;;;;;7.63;100.00;98519.78;4910129;29;20058;-75
2023/03/14 04:32:06;;;;;;;10.82;1.85;;;;;;;7.63;100.00;98512.72;4913088;29;20106;-75
2023/03/14 04:34:32;;;;;;;7.00;2.13;;;;;;;7.63;100.00;98517.16;4925471;28;21267;-75
2023/03/14 04:36:57;;;;;;;8.23;2.03;;;;;;;7.60;100.00;98505.91;4913999;29;20069;-76
2023/03/14 04:39:23;;;;;;;17.45;2.40;;;;;;;7.60;100.00;98515.56;4918609;29;20062;-76
2023/03/14 04:41:48;;;;;;;10.90;2.35;;;;;;;7.57;100.00;98516.63;4918167;29;20586;-75
2023/03/14 04:44:13;;;;;;;12.82;2.10;;;;;;;7.53;100.00;98514.31;4910084;29;20043;-75
2023/03/14 04:46:39;;;;;;;12.95;2.50;;;;;;;7.48;100.00;98515.47;4915955;29;20055;-75
2023/03/14 04:49:04;;;;;;;6.85;2.20;;;;;;;7.44;100.00;98516.66;4918880;29;20054;-75
2023/03/14 04:51:30;;;;;;;10.20;2.33;;;;;;;7.40;100.00;98519.59;4917737;29;20111;-75
2023/03/14 04:53:55;;;;;;;8.82;2.28;;;;;;;7.36;100.00;98512.88;4911423;29;20059;-75
2023/03/14 04:56:21;;;;;;;10.65;2.75;;;;;;;7.34;100.00;98512.97;4916042;29;20043;-74
2023/03/14 04:58:47;;;;;;;13.82;2.67;;;;;;;7.31;100.00;98521.09;4916514;29;20675;-74
2023/03/14 05:01:12;;;;;;;6.70;2.55;;;;;;;7.29;100.00;98515.91;4916938;29;20055;-74
2023/03/14 05:03:38;;;;;;;7.13;2.60;;;;;;;7.27;100.00;98514.34;4926140;28;20396;-74
2023/03/14 05:06:04;;;;;;;7.38;2.80;;;;;;;7.27;100.00;98511.69;4913184;29;20051;-74
2023/03/14 05:08:30;;;;;;;6.65;2.67;;;;;;;7.26;100.00;98512.66;4898569;29;20110;-74
2023/03/14 05:10:56;;;;;;;4.72;2.17;;;;;;;7.25;100.00;98495.19;4900041;29;20055;-74
2023/03/14 05:13:22;;;;;;;6.22;2.53;;;;;;;7.23;100.00;98507.63;4896079;29;20047;-74
2023/03/14 05:15:50;;;;;;;5.78;2.47;;;;;;;7.20;100.00;98520.00;4895150;29;20050;-73
2023/03/14 05:18:15;;;;;;;6.55;2.50;;;;;;;7.19;100.00;98515.72;4916986;29;20075;-72
2023/03/14 05:20:42;;;;;;;8.85;2.58;;;;;;;7.19;100.00;98507.81;4915740;29;20181;-73
2023/03/14 05:23:08;;;;;;;7.65;2.08;;;;;;;7.20;100.00;98509.50;4917515;29;21517;-73
2023/03/14 05:25:34;;;;;;;6.85;2.47;;;;;;;7.22;100.00;98504.13;4915693;29;20047;-74
2023/03/14 05:27:59;;;;;;;8.52;2.70;;;;;;;7.23;100.00;98504.97;4880547;29;20529;-73
2023/03/14 05:30:25;;;;;;;8.40;2.60;;;;;;;7.23;100.00;98512.88;4907929;29;20140;-73
2023/03/14 05:32:50;;;;;;;6.80;2.65;;;;;;;7.24;100.00;98509.28;4911055;29;20794;-73
2023/03/14 05:35:16;;;;;;;6.03;2.70;;;;;;;7.23;100.00;98512.88;4915698;29;20063;-74
2023/03/14 05:37:41;;;;;;;5.20;3.17;;;;;;;7.23;100.00;98500.53;4913437;29;20048;-73
2023/03/14 05:40:08;;;;;;;10.02;3.00;;;;;;;7.23;100.00;98513.69;4900103;29;20040;-72
2023/03/14 05:42:34;;;;;;;12.07;3.75;;;;;;;7.24;100.00;98519.81;4916149;29;20406;-73
2023/03/14 05:44:59;;;;;;;9.18;3.63;;;;;;;7.23;100.00;98529.50;4912752;29;20672;-73
2023/03/14 05:47:25;;;;;;;9.02;2.78;;;;;;;7.23;100.00;98523.41;4910325;28;20047;-73
2023/03/14 05:49:50;;;;;;;8.95;2.83;;;;;;;7.22;100.00;98532.22;4912947;29;20055;-73
2023/03/14 05:52:16;;;;;;;7.88;2.70;;;;;;;7.18;100.00;98542.13;4897846;29;20055;-73
2023/03/14 05:54:42;;;;;;;4.53;3.00;;;;;;;7.15;100.00;98535.28;4912467;29;20624;-73
2023/03/14 05:57:07;;;;;;;5.22;2.05;;;;;;;7.10;100.00;98547.91;4914246;29;21780;-73
2023/03/14 05:59:33;;;;;;;2.17;1.55;;;;;;;7.02;100.00;98552.84;4913700;29;20144;-73
2023/03/14 06:01:58;;;;;;;5.57;1.48;;;;;;;6.90;100.00;98571.16;4915553;29;20054;-74
2023/03/14 06:04:24;;;;;;;4.90;1.17;;;;;;;6.73;100.00;98580.16;4914315;29;20051;-73
2023/03/14 06:06:49;;;;;;;7.57;1.00;;;;;;;6.51;100.00;98588.59;4915255;29;20055;-73
2023/03/14 06:09:15;;;;;;;3.47;1.20;;;;;;;6.36;100.00;98607.03;4912776;29;20047;-73
2023/03/14 06:11:40;;;;;;;1.17;1.02;;;;;;;6.22;100.00;98614.97;4914488;29;20051;-74
2023/03/14 06:14:06;;;;;;;4.28;0.88;;;;;;;6.04;100.00;98624.84;4914719;29;20588;-73
2023/03/14 06:16:32;;;;;;;2.10;0.60;;;;;;;5.79;100.00;98642.91;4916485;29;20529;-73
2023/03/14 06:18:57;;;;;;;3.88;1.10;;;;;;;5.55;100.00;98650.47;4911209;29;20059;-73
2023/03/14 06:21:22;;;;;;;6.40;0.93;;;;;;;5.35;100.00;98667.41;4929453;28;20510;-73
2023/03/14 06:23:48;;;;;;;2.92;0.82;;;;;;;5.10;100.00;98681.94;4916062;29;20043;-73
2023/03/14 06:26:14;;;;;;;5.68;1.00;;;;;;;4.86;100.00;98695.53;4912840;29;20056;-72
2023/03/14 06:28:39;;;;;;;4.78;1.23;;;;;;;4.66;100.00;98702.72;4911528;29;20327;-73
2023/03/14 06:31:05;;;;;;;5.45;0.90;;;;;;;4.51;100.00;98719.28;4911041;29;20070;-73
2023/03/14 06:33:30;;;;;;;4.45;0.93;;;;;;;4.31;100.00;98724.66;4927470;28;20052;-74
2023/03/14 06:35:56;;;;;;;1.35;0.63;;;;;;;4.12;100.00;98732.66;4913782;29;20415;-72
2023/03/14 06:38:21;;;;;;;3.08;0.60;;;;;;;4.02;100.00;98736.66;4912997;29;20352;-72
2023/03/14 06:41:06;;;;;;;2.20;0.70;;;;;;;3.93;100.00;98749.31;4915247;29;20057;-73
2023/03/14 06:43:31;;;;;;;5.65;0.98;;;;;;;3.82;100.00;98764.75;4910870;29;20046;-72
2023/03/14 06:45:58;;;;;;;2.72;1.05;;;;;;;3.72;100.00;98771.34;4913905;29;20052;-72
2023/03/14 06:48:23;;;;;;;2.58;0.85;;;;;;;3.64;100.00;98790.91;4909699;29;20079;-72
2023/03/14 06:50:49;;;;;;;7.90;1.00;;;;;;;3.58;100.00;98817.38;4912101;29;20625;-72
2023/03/14 06:53:14;;;;;;;1.23;0.60;;;;;;;3.50;100.00;98825.59;4916030;29;20055;-73
2023/03/14 06:55:40;;;;;;;2.67;0.95;;;;;;;3.42;100.00;98832.97;4912843;29;20098;-72
2023/03/14 06:58:07;;;;;;;4.78;1.17;;;;;;;3.35;100.00;98842.91;4906607;29;20144;-73
2023/03/14 07:00:33;;;;;;;2.03;0.88;;;;;;;3.29;100.00;98864.09;4914815;29;21620;-72
2023/03/14 07:02:59;;;;;;;2.72;0.63;;;;;;;3.26;100.00;98853.78;4909578;29;20047;-73
2023/03/14 07:05:24;;;;;;;3.25;0.68;;;;;;;3.22;100.00;98874.00;4916516;29;20051;-73
2023/03/14 07:07:50;;;;;;;3.75;1.05;;;;;;;3.21;100.00;98874.09;4909932;29;20051;-72
2023/03/14 07:10:15;;;;;;;5.85;0.82;;;;;;;3.21;100.00;98888.00;4908556;29;20603;-73
2023/03/14 07:12:41;;;;;;;2.38;0.90;;;;;;;3.20;100.00;98904.59;4910495;29;20451;-73
2023/03/14 07:15:07;;;;;;;3.53;0.93;;;;;;;3.18;100.00;98913.44;4910811;29;20059;-73
2023/03/14 07:17:32;;;;;;;2.35;0.73;;;;;;;3.15;100.00;98934.50;4910281;29;20495;-73
2023/03/14 07:19:59;;;;;;;2.05;0.63;;;;;;;3.11;100.00;98954.72;4912214;29;20047;-73
2023/03/14 07:22:25;;;;;;;2.50;0.60;;;;;;;3.09;100.00;98964.38;4909787;29;20047;-73
2023/03/14 07:24:50;;;;;;;1.67;0.75;;;;;;;3.08;100.00;98960.94;4908001;29;20051;-73
2023/03/14 07:27:15;;;;;;;1.27;0.70;;;;;;;3.08;100.00;98989.69;4911156;29;20071;-73
2023/03/14 07:29:41;;;;;;;1.33;0.80;;;;;;;3.07;100.00;98989.75;4903644;29;20055;-73
2023/03/14 07:32:07;;;;;;;1.23;0.60;;;;;;;3.07;100.00;99006.31;4909718;29;20051;-73
2023/03/14 07:34:33;;;;;;;0.52;0.52;;;;;;;3.09;100.00;99014.94;4911131;29;20047;-73
2023/03/14 07:36:59;;;;;;;1.05;0.70;;;;;;;3.15;100.00;99026.03;4901865;29;20055;-73
2023/03/14 07:39:24;;;;;;;1.80;1.00;;;;;;;3.17;100.00;99021.59;4905798;29;20052;-72
2023/03/14 07:41:50;;;;;;;3.03;0.85;;;;;;;3.19;100.00;99038.91;4904591;29;20126;-72
2023/03/14 07:44:15;;;;;;;2.05;0.63;;;;;;;3.20;100.00;99043.22;4910007;29;20063;-74
2023/03/14 07:46:40;;;;;;;1.88;0.80;;;;;;;3.22;100.00;99045.78;4910871;29;20412;-72
2023/03/14 07:49:06;;;;;;;4.93;1.42;;;;;;;3.26;100.00;99060.41;4885862;29;20071;-72
2023/03/14 07:51:31;;;;;;;2.17;0.77;;;;;;;3.28;100.00;99058.59;4900780;29;20523;-73
2023/03/14 07:53:57;;;;;;;1.70;0.80;;;;;;;3.31;100.00;99057.63;4908124;29;20075;-73
2023/03/14 07:56:22;;;;;;;2.42;0.63;;;;;;;3.35;100.00;99069.63;4910142;29;20055;-73
2023/03/14 07:58:51;;;;;;;4.55;0.95;;;;;;;3.37;100.00;99084.34;4902641;29;20062;-74
2023/03/14 08:01:26;;;;;;;9.10;1.00;;;;;;;3.40;100.00;99092.03;4886297;29;20048;-73
2023/03/14 08:03:54;;;;;;;2.85;0.63;;;;;;;3.46;100.00;99097.94;4890339;29;20051;-73
2023/03/14 08:06:19;;;;;;;3.80;1.25;;;;;;;3.50;100.00;99105.56;4890419;29;20055;-74
2023/03/14 08:08:45;;;;;;;1.75;0.77;;;;;;;3.54;100.00;99114.13;4909643;29;20467;-73
2023/03/14 08:11:10;;;;;;;3.30;0.80;;;;;;;3.57;100.00;99123.63;4909893;29;20051;-73
2023/03/14 08:13:37;;;;;;;6.25;1.00;;;;;;;3.60;100.00;99134.81;4893007;29;20154;-73
2023/03/14 08:16:03;;;;;;;9.77;1.92;;;;;;;3.65;100.00;99143.31;4904839;29;20054;-73
2023/03/14 08:18:29;;;;;;;5.65;0.90;;;;;;;3.71;100.00;99151.81;4903417;29;20552;-73
2023/03/14 08:20:55;;;;;;;3.85;1.00;;;;;;;3.72;100.00;99159.63;4889861;29;20031;-73
2023/03/14 08:23:20;;;;;;;6.32;1.23;;;;;;;3.74;100.00;99165.63;4908411;28;20198;-73
2023/03/14 08:25:49;;;;;;;7.22;1.23;;;;;;;3.74;100.00;99173.47;4904953;28;21018;-73
2023/03/14 08:28:14;;;;;;;8.32;1.35;;;;;;;3.78;100.00;99176.81;4909909;29;20507;-73
2023/03/14 08:30:40;;;;;;;3.00;0.85;;;;;;;3.84;100.00;99176.53;4904536;28;20058;-73
2023/03/14 08:33:05;;;;;;;7.30;2.00;;;;;;;3.86;100.00;99198.25;4904378;28;20118;-73
2023/03/14 08:35:31;;;;;;;3.35;1.15;;;;;;;3.88;100.00;99206.88;4873810;28;20702;-73
2023/03/14 08:37:56;;;;;;;4.20;1.10;;;;;;;3.94;100.00;99201.38;4893913;29;20055;-73
2023/03/14 08:40:22;;;;;;;2.90;1.20;;;;;;;4.00;100.00;99218.63;4903613;29;20058;-73
2023/03/14 08:42:47;;;;;;;6.47;1.48;;;;;;;4.07;100.00;99221.78;4887995;28;20558;-73
2023/03/14 08:45:16;;;;;;;5.28;1.30;;;;;;;4.18;100.00;99251.00;4897280;29;20575;-73
2023/03/14 08:47:43;;;;;;;6.47;1.33;;;;;;;4.27;100.00;99243.63;4886102;29;20135;-72
2023/03/14 08:50:09;;;;;;;8.18;1.67;;;;;;;4.33;100.00;99248.59;4900248;29;20042;-72
2023/03/14 08:52:35;;;;;;;4.97;1.40;;;;;;;4.41;100.00;99256.97;4897648;28;20746;-72
2023/03/14 08:55:00;;;;;;;6.93;1.67;;;;;;;4.45;100.00;99265.53;4900093;28;20612;-72
2023/03/14 08:57:29;;;;;;;6.80;1.25;;;;;;;4.47;100.00;99275.03;4885590;29;20747;-72
2023/03/14 08:59:55;;;;;;;8.02;1.67;;;;;;;4.47;100.00;99297.78;4883676;29;20055;-72
2023/03/14 09:02:21;;;;;;;6.68;2.13;;;;;;;4.43;100.00;99297.06;4904607;29;20052;-72
2023/03/14 09:04:47;;;;;;;9.73;1.85;;;;;;;4.40;100.00;99312.91;4904568;28;20047;-72
2023/03/14 09:07:12;;;;;;;5.88;1.55;;;;;;;4.37;100.00;99335.78;4907545;29;20292;-72
2023/03/14 09:09:38;;;;;;;9.52;1.75;;;;;;;4.27;100.00;99345.81;4904485;29;20088;-72
2023/03/14 09:12:04;;;;;;;5.97;1.42;;;;;;;4.20;100.00;99348.69;4902615;29;20373;-72
2023/03/14 09:14:31;;;;;;;8.80;1.85;;;;;;;4.18;100.00;99366.25;4905692;29;20153;-71
2023/03/14 09:16:57;;;;;;;7.53;1.52;;;;;;;4.15;100.00;99381.25;4905826;29;20520;-72
2023/03/14 09:19:23;;;;;;;7.65;1.38;;;;;;;4.15;100.00;99382.09;4904024;29;20124;-72
2023/03/14 09:21:49;;;;;;;4.65;1.30;;;;;;;4.16;100.00;99382.97;4905628;29;20044;-72
2023/03/14 09:24:16;;;;;;;5.78;1.30;;;;;;;4.18;100.00;99387.22;4908064;29;20142;-72
2023/03/14 09:26:41;;;;;;;7.55;2.25;;;;;;;4.23;100.00;99404.53;4890448;29;20288;-72
2023/03/14 09:29:07;;;;;;;4.22;1.42;;;;;;;4.26;100.00;99409.63;4888692;29;20435;-73
2023/03/14 09:31:33;;;;;;;9.55;1.63;;;;;;;4.27;100.00;99427.03;4902410;29;20056;-72
2023/03/14 09:33:58;;;;;;;14.88;1.70;;;;;;;4.28;100.00;99429.59;4912659;29;20047;-72
2023/03/14 09:36:23;;;;;;;5.82;1.50;;;;;;;4.32;100.00;99451.28;4901425;29;20070;-72
2023/03/14 09:38:49;;;;;;;9.93;1.80;;;;;;;4.34;100.00;99450.31;4901966;29;20122;-72
2023/03/14 09:41:21;;;;;;;7.32;1.83;;;;;;;4.38;100.00;99461.53;4908884;29;20047;-72
2023/03/14 09:43:50;;;;;;;10.68;2.67;;;;;;;4.41;100.00;99477.09;4903930;29;20106;-72
2023/03/14 09:46:16;;;;;;;5.63;1.73;;;;;;;4.48;100.00;99483.78;4896278;29;20500;-72
2023/03/14 09:48:43;;;;;;;11.65;1.95;;;;;;;4.54;100.00;99498.44;4893872;29;20062;-72
2023/03/14 09:51:15;;;;;;;7.10;1.42;;;;;;;4.53;100.00;99512.41;4879107;29;20050;-74
2023/03/14 09:53:43;;;;;;;7.35;1.20;;;;;;;4.53;100.00;99511.59;4920354;28;20047;-72
2023/03/14 09:56:30;;;;;;;7.18;1.30;;;;;;;4.52;100.00;99521.22;4890906;29;20122;-72
2023/03/14 09:59:02;;;;;;;6.90;1.40;;;;;;;4.54;100.00;99529.00;4897448;29;20488;-72
2023/03/14 10:01:30;;;;;;;3.97;1.73;;;;;;;4.54;100.00;99560.47;4908211;29;20083;-72
2023/03/14 10:04:13;;;;;;;4.25;1.48;;;;;;;4.46;100.00;99563.41;4904494;29;20043;-73
2023/03/14 10:06:38;;;;;;;9.95;1.67;;;;;;;4.39;100.00;99561.94;4886299;29;20060;-73
2023/03/14 10:09:05;;;;;;;4.13;1.30;;;;;;;4.34;100.00;99565.63;4908550;29;20107;-71
2023/03/14 10:11:31;;;;;;;7.65;1.63;;;;;;;4.36;100.00;99570.78;4901966;29;20238;-73
2023/03/14 10:14:12;;;;;;;7.45;1.73;;;;;;;4.39;100.00;99599.50;4906066;29;20151;-72
2023/03/14 10:16:45;;;;;;;3.80;1.30;;;;;;;4.48;100.00;99619.25;4892608;29;21654;-73
2023/03/14 10:19:16;;;;;;;2.97;0.98;;;;;;;4.47;100.00;99592.19;4890370;29;20043;-75
2023/03/14 10:21:51;;;;;;;4.18;1.20;;;;;;;4.45;100.00;99588.78;4902682;29;20384;-73
2023/03/14 10:24:30;;;;;;;3.95;1.40;;;;;;;4.52;100.00;99625.22;4875616;29;20051;-73
2023/03/14 10:27:02;;;;;;;2.45;0.85;;;;;;;4.58;100.00;99620.56;4903436;29;20400;-78
2023/03/14 10:29:33;;;;;;;3.75;1.05;;;;;;;4.60;100.00;99634.50;4903473;29;20276;-80
2023/03/14 10:32:01;;;;;;;4.70;1.33;;;;;;;4.54;99.91;99647.84;4907557;29;21704;-77
2023/03/14 10:34:29;;;;;;;2.55;0.90;;;;;;;4.45;96.73;99641.19;4900649;29;20078;-76
2023/03/14 10:36:59;;;;;;;7.43;1.02;;;;;;;4.40;93.08;99679.00;4885701;29;20126;-77
2023/03/14 10:39:29;;;;;;;3.38;1.00;;;;;;;4.41;95.37;99657.94;4901780;29;20219;-78
2023/03/14 10:42:02;;;;;;;1.52;0.80;;;;;;;4.45;92.91;99683.13;4909705;29;20510;-78
2023/03/14 10:44:31;;;;;;;1.13;0.93;;;;;;;4.51;96.06;99686.44;4910452;29;20061;-77
2023/03/14 10:46:59;;;;;;;4.32;0.95;;;;;;;4.63;95.97;99688.56;4904086;29;20759;-78
2023/03/14 10:49:31;;;;;;;4.82;1.10;;;;;;;4.75;98.12;99685.44;4907690;29;20039;-78
2023/03/14 10:52:01;;;;;;;5.28;1.30;;;;;;;4.74;96.37;99707.34;4906261;29;20071;-77
2023/03/14 10:54:29;;;;;;;2.80;0.90;;;;;;;4.64;97.69;99713.00;4909922;29;20530;-76
2023/03/14 10:57:00;;;;;;;6.22;0.77;;;;;;;4.57;95.18;99730.75;4909244;29;20054;-75
2023/03/14 10:59:27;;;;;;;1.75;1.17;;;;;;;4.49;94.09;99736.28;4923152;28;20139;-77
2023/03/14 11:02:24;;;;;;;3.85;1.25;;;;;;;4.45;95.05;99748.66;4887842;29;20035;-76
2023/03/14 11:04:53;;;;;;;4.80;1.35;;;;;;;4.46;93.33;99752.97;4904078;29;20128;-76
2023/03/14 11:07:24;;;;;;;3.63;0.82;;;;;;;4.53;94.31;99750.97;4907178;29;20377;-75
2023/03/14 11:09:56;;;;;;;2.45;0.73;;;;;;;4.58;91.32;99766.56;4884274;29;20059;-74
2023/03/14 11:12:46;;;;;;;2.33;0.80;;;;;;;4.59;84.94;99789.22;4904317;29;20051;-76
2023/03/14 11:15:21;;;;;;;4.03;0.98;;;;;;;4.58;88.17;99792.75;4905878;29;20056;-75
2023/03/14 11:18:07;;;;;;;3.17;1.05;;;;;;;4.58;85.08;99798.84;4906542;29;20948;-76
2023/03/14 11:21:12;;;;;;;1.13;0.75;;;;;;;4.60;85.93;99807.53;4885596;29;20186;-75
2023/03/14 11:24:02;;;;;;;5.47;1.02;;;;;;;4.60;89.16;99807.53;4893863;29;20704;-76
2023/03/14 11:27:01;;;;;;;1.92;0.73;;;;;;;4.69;86.40;99813.34;4904962;29;20358;-74
2023/03/14 11:29:40;;;;;;;6.72;1.00;;;;;;;4.79;88.89;99821.72;4905627;29;20060;-75
2023/03/14 11:32:46;;;;;;;1.23;0.80;;;;;;;4.83;86.76;99826.78;4906987;29;20285;-76
2023/03/14 11:35:31;;;;;;;3.38;0.75;;;;;;;4.84;85.60;99840.72;4895577;29;20066;-74